Time;durP1;ratioP1;P1;durP2;ratioP2;P2;SDS_P1;SDS_P2;PMS_P1;PMS_P2;Temp;Humidity;BMP_temperature;BMP_pressure;BME280_temperature;BME280_humidity;BME280_pressure;Samples;Min_cycle;Max_cycle;Signal;HPM_P1;HPM_P2
2022/07/10 00:01:23;;;;;;;4.50;2.07;;;16.30;91.40;;;;;;5070891;28;20501;-50
2022/07/10 00:03:50;;;;;;;4.33;1.70;;;16.30;91.40;;;;;;5070554;28;20426;-51
2022/07/10 00:06:17;;;;;;;7.10;1.70;;;16.30;91.40;;;;;;5069841;28;20485;-51
2022/07/10 00:08:45;;;;;;;8.80;2.43;;;16.30;91.40;;;;;;5070623;28;20434;-51
2022/07/10 00:11:11;;;;;;;5.70;1.27;;;15.80;91.10;;;;;;5070806;28;20523;-51
2022/07/10 00:13:38;;;;;;;5.20;1.80;;;16.50;91.30;;;;;;5070982;28;20438;-50
2022/07/10 00:16:06;;;;;;;6.63;2.10;;;16.40;91.30;;;;;;5070746;28;20441;-51
2022/07/10 00:18:32;;;;;;;4.60;1.43;;;16.40;91.20;;;;;;5070799;28;20483;-51
2022/07/10 00:20:59;;;;;;;3.33;1.50;;;16.40;91.20;;;;;;5070761;28;20454;-51
2022/07/10 00:23:25;;;;;;;9.20;2.27;;;16.40;91.20;;;;;;5070872;28;20833;-50
2022/07/10 00:25:54;;;;;;;3.90;1.40;;;16.40;91.10;;;;;;5070776;28;20436;-50
2022/07/10 00:28:20;;;;;;;4.57;1.40;;;16.40;91.10;;;;;;5070747;28;20429;-51
2022/07/10 00:30:47;;;;;;;3.90;1.20;;;16.40;91.20;;;;;;5070471;28;20472;-51
2022/07/10 00:33:13;;;;;;;5.33;1.30;;;16.40;91.20;;;;;;5070831;28;20437;-51
2022/07/10 00:35:40;;;;;;;9.83;1.77;;;16.50;91.20;;;;;;5072064;28;20934;-51
2022/07/10 00:38:06;;;;;;;4.00;1.70;;;16.50;91.30;;;;;;5074348;28;20435;-51
2022/07/10 00:40:33;;;;;;;4.80;1.60;;;16.50;91.40;;;;;;5091440;22;20929;-42
2022/07/10 00:43:01;;;;;;;6.60;1.43;;;16.40;91.40;;;;;;5054697;28;20443;-43
2022/07/10 00:45:28;;;;;;;5.40;1.60;;;16.50;91.40;;;;;;5054622;28;20430;-43
2022/07/10 00:47:54;;;;;;;7.53;1.50;;;16.40;91.40;;;;;;5054655;28;20507;-42
2022/07/10 00:50:21;;;;;;;6.67;1.97;;;16.40;91.40;;;;;;5054322;28;20568;-44
2022/07/10 00:52:48;;;;;;;4.70;1.30;;;16.40;91.40;;;;;;5053366;28;20950;-42
2022/07/10 00:55:14;;;;;;;4.97;1.30;;;16.40;91.50;;;;;;5054225;28;20458;-43
2022/07/10 00:57:41;;;;;;;3.40;1.13;;;16.40;91.40;;;;;;5054394;28;20405;-43
2022/07/10 01:00:11;;;;;;;6.07;1.20;;;16.70;91.60;;;;;;5053542;28;20562;-43
2022/07/10 01:02:40;;;;;;;4.27;1.37;;;16.40;91.50;;;;;;5054110;28;20480;-44
2022/07/10 01:05:07;;;;;;;9.57;1.60;;;16.30;91.40;;;;;;5054281;28;20505;-43
2022/07/10 01:07:33;;;;;;;6.10;1.60;;;16.40;91.50;;;;;;5054575;28;20431;-44
2022/07/10 01:10:01;;;;;;;6.33;1.63;;;16.60;91.60;;;;;;5053898;28;20923;-43
2022/07/10 01:12:29;;;;;;;7.17;1.13;;;16.40;91.60;;;;;;5054552;28;20814;-43
2022/07/10 01:14:55;;;;;;;4.50;1.13;;;16.30;91.60;;;;;;5054439;28;20535;-44
2022/07/10 01:17:24;;;;;;;4.63;1.30;;;16.40;91.60;;;;;;5053852;28;20431;-43
2022/07/10 01:19:50;;;;;;;7.63;1.77;;;16.40;91.60;;;;;;5053551;28;20440;-42
2022/07/10 01:22:18;;;;;;;3.40;1.87;;;16.40;91.60;;;;;;5053879;28;20427;-42
2022/07/10 01:24:45;;;;;;;4.83;1.33;;;16.40;91.60;;;;;;5054389;28;20446;-43
2022/07/10 01:27:12;;;;;;;7.90;1.33;;;16.40;91.70;;;;;;5052534;28;20461;-46
2022/07/10 01:29:38;;;;;;;9.33;1.13;;;16.30;91.60;;;;;;5053275;28;20430;-43
2022/07/10 01:32:06;;;;;;;9.00;2.03;;;16.40;91.70;;;;;;5052137;28;20480;-41
2022/07/10 01:34:33;;;;;;;6.33;1.30;;;16.40;91.70;;;;;;5053811;28;20437;-43
2022/07/10 01:36:59;;;;;;;6.27;1.67;;;16.20;91.70;;;;;;5053630;28;20480;-43
2022/07/10 01:39:27;;;;;;;5.67;2.47;;;16.30;91.80;;;;;;5053480;28;20446;-41
2022/07/10 01:41:54;;;;;;;3.50;1.50;;;16.40;91.80;;;;;;5053338;28;20466;-43
2022/07/10 01:44:20;;;;;;;5.53;1.47;;;16.40;91.80;;;;;;5052038;28;20450;-44
2022/07/10 01:46:48;;;;;;;5.10;2.07;;;16.30;91.80;;;;;;5052829;28;20450;-42
2022/07/10 01:49:15;;;;;;;4.40;1.57;;;16.30;91.90;;;;;;5053064;28;20430;-43
2022/07/10 01:51:42;;;;;;;3.43;1.43;;;16.30;92.00;;;;;;5053294;28;20820;-43
2022/07/10 01:54:08;;;;;;;4.13;0.93;;;16.20;91.90;;;;;;5053216;28;20986;-46
2022/07/10 01:56:38;;;;;;;5.03;2.00;;;16.20;92.00;;;;;;5053188;28;20405;-41
2022/07/10 01:59:05;;;;;;;5.00;1.87;;;16.30;92.10;;;;;;5051751;28;20538;-43
2022/07/10 02:01:31;;;;;;;4.93;1.70;;;16.10;92.10;;;;;;5052921;28;20887;-44
2022/07/10 02:06:51;;;;;;;3.63;1.17;;;16.10;92.20;;;;;;5028423;28;20442;-43
2022/07/10 02:09:19;;;;;;;2.07;1.03;;;16.10;92.20;;;;;;5052638;28;20434;-44
2022/07/10 02:11:46;;;;;;;3.40;1.13;;;16.20;92.30;;;;;;5052916;28;20515;-42
2022/07/10 02:14:13;;;;;;;6.20;1.00;;;16.10;92.30;;;;;;5053058;28;20943;-43
2022/07/10 02:16:40;;;;;;;6.70;1.17;;;16.10;92.30;;;;;;5052885;28;20525;-42
2022/07/10 02:19:06;;;;;;;3.83;1.03;;;16.00;92.30;;;;;;5052327;28;20439;-43
2022/07/10 02:21:33;;;;;;;3.70;1.10;;;16.00;92.30;;;;;;5052839;28;20466;-43
2022/07/10 02:23:59;;;;;;;4.67;1.20;;;16.00;92.40;;;;;;5052751;28;20792;-44
2022/07/10 02:26:26;;;;;;;5.63;1.10;;;16.00;92.40;;;;;;5052656;28;20441;-44
2022/07/10 02:28:54;;;;;;;4.60;1.27;;;16.00;92.60;;;;;;5052339;28;20430;-44
2022/07/10 02:31:20;;;;;;;9.83;1.50;;;15.50;92.40;;;;;;5052529;28;20481;-42
2022/07/10 02:33:47;;;;;;;4.40;0.83;;;15.90;92.70;;;;;;5052632;28;20790;-43
2022/07/10 02:36:14;;;;;;;7.37;1.33;;;15.90;92.70;;;;;;5052576;28;20431;-43
2022/07/10 02:38:40;;;;;;;4.30;1.30;;;15.90;92.80;;;;;;5052050;28;20435;-43
2022/07/10 02:41:07;;;;;;;6.30;2.80;;;16.00;92.90;;;;;;5052561;28;20466;-43
2022/07/10 02:43:33;;;;;;;4.00;1.50;;;16.00;93.10;;;;;;5052384;28;20493;-46
2022/07/10 02:46:01;;;;;;;6.50;1.27;;;15.90;93.20;;;;;;5052388;28;20431;-42
2022/07/10 02:48:28;;;;;;;2.47;1.00;;;15.80;93.30;;;;;;5051925;28;20435;-42
2022/07/10 02:50:55;;;;;;;7.10;1.03;;;15.90;93.40;;;;;;5052066;28;20478;-43
2022/07/10 02:53:21;;;;;;;6.40;1.00;;;15.90;93.50;;;;;;5052308;28;20422;-41
2022/07/10 02:55:48;;;;;;;5.53;1.07;;;15.80;93.60;;;;;;5052322;28;20793;-44
2022/07/10 02:58:15;;;;;;;5.37;1.10;;;15.80;93.70;;;;;;5051678;28;20442;-42
2022/07/10 03:00:42;;;;;;;2.10;1.07;;;15.80;93.70;;;;;;5051801;28;20862;-41
2022/07/10 03:03:10;;;;;;;3.77;1.00;;;15.80;93.80;;;;;;5052058;28;20472;-42
2022/07/10 03:05:36;;;;;;;6.67;1.77;;;15.50;93.70;;;;;;5051144;28;20443;-43
2022/07/10 03:08:03;;;;;;;5.47;1.20;;;15.80;93.90;;;;;;5052388;28;20442;-42
2022/07/10 03:10:30;;;;;;;6.30;1.23;;;15.80;94.00;;;;;;5050373;28;20466;-43
2022/07/10 03:12:57;;;;;;;4.20;1.40;;;15.80;94.00;;;;;;5051953;28;20483;-44
2022/07/10 03:15:23;;;;;;;4.97;1.13;;;15.70;94.00;;;;;;5052019;28;20423;-42
2022/07/10 03:17:50;;;;;;;4.30;1.40;;;15.70;94.10;;;;;;5052661;28;20448;-41
2022/07/10 03:20:18;;;;;;;3.87;1.20;;;15.70;94.10;;;;;;5051419;28;20457;-43
2022/07/10 03:22:45;;;;;;;4.47;1.20;;;15.70;94.00;;;;;;5051845;28;20427;-45
2022/07/10 03:25:11;;;;;;;4.83;1.30;;;15.80;94.20;;;;;;5051924;28;20431;-43
2022/07/10 03:27:38;;;;;;;4.30;1.13;;;15.90;94.30;;;;;;5051811;28;20432;-44
2022/07/10 03:30:06;;;;;;;5.13;1.70;;;15.70;94.30;;;;;;5051269;28;20462;-45
2022/07/10 03:32:33;;;;;;;3.77;1.10;;;15.70;94.30;;;;;;5051348;28;20470;-43
2022/07/10 03:34:59;;;;;;;3.77;1.43;;;15.80;94.30;;;;;;5051519;28;20446;-43
2022/07/10 03:37:27;;;;;;;4.40;1.10;;;15.80;94.40;;;;;;5051898;28;20442;-43
2022/07/10 03:39:54;;;;;;;2.77;1.10;;;15.80;94.40;;;;;;5051153;28;20442;-43
2022/07/10 03:42:21;;;;;;;4.83;1.03;;;15.80;94.40;;;;;;5051993;28;20588;-41
2022/07/10 03:44:47;;;;;;;3.77;0.93;;;15.80;94.40;;;;;;5051711;28;20453;-43
2022/07/10 03:47:14;;;;;;;4.93;1.30;;;15.80;94.40;;;;;;5051896;28;20447;-41
2022/07/10 03:49:41;;;;;;;5.30;1.00;;;15.90;94.60;;;;;;5051266;28;20987;-42
2022/07/10 03:52:08;;;;;;;6.90;1.10;;;15.80;94.50;;;;;;5051215;28;20581;-44
2022/07/10 03:54:36;;;;;;;3.70;1.33;;;15.80;94.60;;;;;;5051705;28;20795;-42
2022/07/10 03:59:47;;;;;;;6.50;1.40;;;15.90;94.70;;;;;;5051261;28;20418;-42
2022/07/10 04:02:14;;;;;;;4.30;1.20;;;15.90;94.80;;;;;;5051409;28;20426;-43
2022/07/10 04:04:40;;;;;;;3.17;1.17;;;15.80;94.70;;;;;;5051660;28;20461;-43
2022/07/10 04:07:07;;;;;;;4.83;2.10;;;15.60;94.80;;;;;;5051464;28;20931;-43
2022/07/10 04:09:33;;;;;;;6.33;1.13;;;15.80;94.80;;;;;;5050971;28;20438;-43
2022/07/10 04:12:01;;;;;;;3.73;1.13;;;15.90;95.00;;;;;;5054913;28;20989;-43
2022/07/10 04:14:28;;;;;;;8.53;1.60;;;15.40;94.80;;;;;;5055177;28;20440;-45
2022/07/10 04:16:54;;;;;;;3.53;1.37;;;15.40;94.90;;;;;;5055651;28;20449;-42
2022/07/10 04:19:22;;;;;;;5.43;1.60;;;15.80;95.00;;;;;;5054696;28;20431;-42
2022/07/10 04:21:49;;;;;;;5.10;1.30;;;16.00;95.20;;;;;;5055099;28;20523;-43
2022/07/10 04:24:16;;;;;;;4.07;1.20;;;15.90;95.20;;;;;;5055051;28;20431;-42
2022/07/10 04:26:42;;;;;;;5.20;1.10;;;15.90;95.20;;;;;;5053541;28;20457;-44
2022/07/10 04:29:10;;;;;;;6.50;1.33;;;15.90;95.20;;;;;;5054692;28;20438;-43
2022/07/10 04:31:37;;;;;;;4.37;1.20;;;16.00;95.20;;;;;;5054688;28;20485;-42
2022/07/10 04:34:04;;;;;;;4.63;1.30;;;15.80;95.20;;;;;;5054762;28;20928;-41
2022/07/10 04:36:30;;;;;;;3.73;1.10;;;15.90;95.30;;;;;;5054674;28;20446;-44
2022/07/10 04:38:57;;;;;;;6.40;1.10;;;15.90;95.30;;;;;;5054302;28;20442;-43
2022/07/10 04:41:24;;;;;;;5.70;1.03;;;15.90;95.40;;;;;;5054477;28;20460;-42
2022/07/10 04:43:51;;;;;;;9.53;1.33;;;15.90;95.40;;;;;;5054642;28;20428;-42
2022/07/10 04:46:18;;;;;;;8.80;1.10;;;16.00;95.50;;;;;;5054640;28;20439;-44
2022/07/10 04:48:45;;;;;;;2.67;1.10;;;16.00;95.50;;;;;;5054281;28;20694;-43
2022/07/10 04:51:12;;;;;;;4.53;1.47;;;16.10;95.50;;;;;;5054529;28;20466;-42
2022/07/10 04:53:38;;;;;;;2.60;1.03;;;16.00;95.40;;;;;;5053381;28;20802;-41
2022/07/10 04:56:05;;;;;;;6.77;1.50;;;16.10;95.40;;;;;;5054368;28;20442;-45
2022/07/10 04:58:32;;;;;;;6.70;1.37;;;16.30;95.50;;;;;;5054082;28;20470;-43
2022/07/10 05:00:58;;;;;;;8.00;1.80;;;16.20;95.30;;;;;;5054489;28;20458;-42
2022/07/10 05:03:26;;;;;;;2.40;1.07;;;16.30;95.30;;;;;;5054170;28;20440;-42
2022/07/10 05:05:53;;;;;;;6.10;1.23;;;16.20;95.30;;;;;;5054189;28;20412;-42
2022/07/10 05:08:20;;;;;;;7.20;2.70;;;16.10;95.20;;;;;;5052688;28;20819;-45
2022/07/10 05:10:47;;;;;;;5.50;1.67;;;16.30;95.30;;;;;;5052368;28;20471;-42
2022/07/10 05:13:13;;;;;;;3.60;1.30;;;16.30;95.30;;;;;;5054134;28;20497;-45
2022/07/10 05:15:40;;;;;;;4.97;1.40;;;16.20;95.30;;;;;;5054229;28;20426;-43
2022/07/10 05:18:07;;;;;;;7.47;1.37;;;16.30;95.30;;;;;;5053942;28;20431;-44
2022/07/10 05:20:36;;;;;;;5.50;1.10;;;16.40;95.40;;;;;;5053279;28;20469;-45
2022/07/10 05:23:03;;;;;;;4.70;1.50;;;16.30;95.40;;;;;;5053983;28;20775;-42
2022/07/10 05:25:30;;;;;;;8.63;1.60;;;16.20;95.50;;;;;;5054007;28;20426;-45
2022/07/10 05:27:57;;;;;;;5.53;1.20;;;16.40;95.50;;;;;;5053838;28;20951;-42
2022/07/10 05:30:23;;;;;;;3.47;0.93;;;16.40;95.40;;;;;;5053391;28;20458;-42
2022/07/10 05:32:50;;;;;;;6.07;1.90;;;16.70;95.50;;;;;;5053538;28;20478;-43
2022/07/10 05:35:17;;;;;;;2.70;1.30;;;16.50;95.40;;;;;;5053974;28;20443;-43
2022/07/10 05:37:45;;;;;;;5.60;1.47;;;16.40;95.20;;;;;;5053677;28;20442;-43
2022/07/10 05:40:12;;;;;;;4.80;1.43;;;16.50;95.10;;;;;;5053139;28;20492;-43
2022/07/10 05:42:38;;;;;;;5.23;2.20;;;16.60;95.10;;;;;;5053633;28;20895;-44
2022/07/10 05:45:06;;;;;;;8.37;1.67;;;16.70;95.10;;;;;;5053678;28;20434;-43
2022/07/10 05:47:33;;;;;;;8.13;1.80;;;16.60;95.00;;;;;;5053618;28;20473;-43
2022/07/10 05:49:59;;;;;;;6.80;1.93;;;16.80;95.00;;;;;;5053579;28;20453;-41
2022/07/10 05:52:26;;;;;;;3.23;1.43;;;16.70;94.70;;;;;;5053927;28;20537;-41
2022/07/10 05:54:54;;;;;;;4.13;1.60;;;16.50;94.80;;;;;;5053851;28;20439;-44
2022/07/10 05:57:20;;;;;;;7.27;1.77;;;16.60;94.90;;;;;;5053348;28;20435;-43
2022/07/10 05:59:47;;;;;;;4.80;1.50;;;16.60;95.00;;;;;;5052747;28;20430;-43
2022/07/10 06:02:15;;;;;;;5.27;1.50;;;16.60;94.90;;;;;;5053306;28;20427;-42
2022/07/10 06:04:41;;;;;;;9.80;1.97;;;16.70;94.90;;;;;;5053361;28;21010;-42
2022/07/10 06:07:08;;;;;;;9.37;1.63;;;16.40;94.80;;;;;;5053230;28;20435;-41
2022/07/10 06:09:35;;;;;;;3.93;2.00;;;16.40;94.80;;;;;;5052886;28;20948;-44
2022/07/10 06:12:04;;;;;;;6.97;1.70;;;16.60;94.90;;;;;;5052863;28;20476;-41
2022/07/10 06:14:30;;;;;;;6.60;1.60;;;16.50;94.80;;;;;;5052813;28;20439;-42
2022/07/10 06:16:57;;;;;;;9.50;2.87;;;16.50;94.80;;;;;;5052741;28;20435;-45
2022/07/10 06:19:23;;;;;;;7.13;1.57;;;16.60;94.80;;;;;;5052420;28;20435;-43
2022/07/10 06:22:30;;;;;;;5.30;1.63;;;16.50;94.90;;;;;;5052730;28;20463;-43
2022/07/10 06:24:37;;;;;;;7.50;1.73;;;16.60;94.90;;;;;;5052455;28;20450;-44
2022/07/10 06:27:06;;;;;;;6.30;1.43;;;16.50;94.80;;;;;;5052872;28;20431;-42
2022/07/10 06:29:33;;;;;;;5.07;1.17;;;16.60;94.90;;;;;;5052112;28;20454;-44
2022/07/10 06:32:00;;;;;;;8.60;1.90;;;16.50;94.80;;;;;;5052520;28;20486;-43
2022/07/10 06:34:27;;;;;;;6.00;1.90;;;16.60;94.80;;;;;;5052006;28;20434;-42
2022/07/10 06:36:54;;;;;;;7.60;1.47;;;16.70;94.60;;;;;;5052681;28;20534;-46
2022/07/10 06:39:21;;;;;;;4.63;1.33;;;16.80;94.50;;;;;;5052247;28;20476;-41
2022/07/10 06:41:47;;;;;;;4.63;2.30;;;16.80;94.30;;;;;;5075005;22;20522;-49
2022/07/10 06:44:15;;;;;;;4.50;1.90;;;16.50;93.80;;;;;;5051052;28;20445;-48
2022/07/10 06:46:42;;;;;;;5.90;1.53;;;16.90;94.20;;;;;;5033149;28;20538;-48
2022/07/10 06:49:08;;;;;;;7.87;1.80;;;16.90;93.80;;;;;;5032813;28;20455;-49
2022/07/10 06:51:35;;;;;;;5.40;1.57;;;17.00;93.80;;;;;;5050939;28;20967;-49
2022/07/10 06:54:02;;;;;;;8.70;2.20;;;17.10;93.80;;;;;;5051268;28;20813;-48
2022/07/10 06:56:28;;;;;;;6.83;1.67;;;17.10;93.80;;;;;;5051383;28;20435;-48
2022/07/10 06:58:55;;;;;;;4.13;1.80;;;17.40;93.90;;;;;;5050935;28;20439;-49
2022/07/10 07:01:23;;;;;;;7.40;2.10;;;17.20;93.70;;;;;;5051072;28;20642;-49
2022/07/10 07:03:50;;;;;;;4.90;1.70;;;17.30;93.50;;;;;;5033099;28;20451;-49
2022/07/10 07:06:16;;;;;;;4.60;1.80;;;17.30;93.00;;;;;;5050999;28;20553;-48
2022/07/10 07:08:43;;;;;;;7.93;1.70;;;17.50;92.80;;;;;;5050509;28;20440;-48
2022/07/10 07:11:10;;;;;;;6.33;1.37;;;17.50;92.50;;;;;;5050780;28;20456;-49
2022/07/10 07:13:36;;;;;;;4.97;1.67;;;17.80;92.00;;;;;;5051117;28;20833;-49
2022/07/10 07:16:06;;;;;;;8.10;1.90;;;18.10;92.00;;;;;;5051021;28;20500;-50
2022/07/10 07:18:36;;;;;;;5.27;1.57;;;17.90;91.50;;;;;;5050620;28;20451;-49
2022/07/10 07:24:03;;;;;;;7.10;2.23;;;18.30;91.20;;;;;;4989261;28;20498;-49
2022/07/10 07:26:30;;;;;;;10.43;2.03;;;18.40;90.70;;;;;;4989050;28;20448;-49
2022/07/10 07:28:57;;;;;;;8.17;1.97;;;18.60;90.50;;;;;;5015983;28;20461;-50
2022/07/10 07:31:23;;;;;;;5.67;1.83;;;18.70;90.20;;;;;;5050785;28;20593;-49
2022/07/10 07:33:51;;;;;;;5.80;1.77;;;18.70;90.10;;;;;;5050630;28;20500;-49
2022/07/10 07:36:18;;;;;;;9.47;1.50;;;18.80;90.10;;;;;;5050459;28;20445;-49
2022/07/10 07:38:44;;;;;;;4.20;1.40;;;18.70;89.90;;;;;;5050328;28;20836;-50
2022/07/10 07:41:11;;;;;;;9.50;2.07;;;18.70;89.00;;;;;;5050484;28;20469;-49
2022/07/10 07:43:38;;;;;;;5.93;1.37;;;18.80;89.10;;;;;;5050506;28;20434;-48
2022/07/10 07:46:05;;;;;;;6.20;1.60;;;19.20;88.50;;;;;;5054462;28;20599;-50
2022/07/10 07:48:31;;;;;;;4.00;2.00;;;18.80;85.10;;;;;;5054314;28;20903;-48
2022/07/10 07:50:59;;;;;;;13.80;2.00;;;18.80;84.50;;;;;;5054352;28;20457;-49
2022/07/10 07:53:26;;;;;;;4.33;1.30;;;18.70;82.50;;;;;;5054614;28;20576;-49
2022/07/10 07:55:52;;;;;;;8.90;1.90;;;18.50;81.90;;;;;;5054738;28;20436;-50
2022/07/10 07:58:20;;;;;;;6.30;1.97;;;18.40;82.30;;;;;;5054425;28;20437;-50
2022/07/10 08:00:46;;;;;;;5.83;1.87;;;18.70;83.40;;;;;;5036325;28;20470;-50
2022/07/10 08:03:13;;;;;;;4.77;1.87;;;18.60;83.00;;;;;;5054376;28;20441;-49
2022/07/10 08:05:40;;;;;;;2.90;1.30;;;18.70;83.50;;;;;;5053987;28;20441;-50
2022/07/10 08:08:08;;;;;;;5.37;1.80;;;18.40;82.60;;;;;;5054169;28;20437;-49
2022/07/10 08:10:36;;;;;;;4.13;1.70;;;18.80;83.30;;;;;;5035900;28;21001;-50
2022/07/10 08:13:03;;;;;;;10.60;2.03;;;19.00;82.70;;;;;;5053941;28;20568;-49
2022/07/10 08:15:30;;;;;;;4.47;1.43;;;19.40;82.40;;;;;;5054003;28;20933;-49
2022/07/10 08:17:58;;;;;;;7.37;1.60;;;19.10;81.60;;;;;;5053929;28;20446;-49
2022/07/10 08:20:26;;;;;;;7.27;2.03;;;19.10;81.40;;;;;;5035447;28;20527;-50
2022/07/10 08:22:53;;;;;;;7.20;1.43;;;19.20;81.10;;;;;;5053837;28;20906;-48
2022/07/10 08:25:22;;;;;;;7.40;1.60;;;19.40;81.40;;;;;;5053836;28;20434;-50
2022/07/10 08:27:48;;;;;;;8.40;2.70;;;19.20;80.60;;;;;;5053908;28;20815;-49
2022/07/10 08:30:15;;;;;;;7.50;1.87;;;19.40;80.80;;;;;;5053349;28;20437;-49
2022/07/10 08:32:42;;;;;;;6.30;1.70;;;19.50;81.00;;;;;;5036238;28;20484;-49
2022/07/10 08:35:13;;;;;;;5.67;1.70;;;19.50;78.40;;;;;;5053709;28;20425;-49
2022/07/10 08:37:39;;;;;;;7.03;2.13;;;19.10;77.60;;;;;;5053703;28;20492;-49
2022/07/10 08:40:09;;;;;;;3.33;2.00;;;19.10;77.50;;;;;;5053286;28;20434;-49
2022/07/10 08:42:37;;;;;;;8.80;1.97;;;19.20;77.20;;;;;;5053841;28;20438;-49
2022/07/10 08:45:04;;;;;;;3.10;1.20;;;19.20;77.40;;;;;;5053553;28;20531;-50
2022/07/10 08:47:34;;;;;;;3.87;1.33;;;19.20;76.40;;;;;;5053438;28;20872;-49
2022/07/10 08:50:01;;;;;;;5.17;1.60;;;19.20;75.00;;;;;;5052929;28;20449;-49
2022/07/10 08:52:34;;;;;;;4.00;1.60;;;19.20;75.00;;;;;;5052750;28;20456;-50
2022/07/10 08:55:00;;;;;;;5.97;2.13;;;19.40;76.60;;;;;;5052803;28;20438;-49
2022/07/10 08:57:29;;;;;;;7.10;1.87;;;19.70;77.50;;;;;;5052250;28;20442;-50
2022/07/10 08:59:57;;;;;;;6.63;1.70;;;19.70;77.80;;;;;;5052912;28;20442;-51
2022/07/10 09:02:24;;;;;;;6.70;1.87;;;19.80;77.30;;;;;;5053241;28;20474;-50
2022/07/10 09:04:50;;;;;;;5.00;2.03;;;19.50;77.20;;;;;;5053318;28;20437;-49
2022/07/10 09:07:18;;;;;;;9.03;1.90;;;19.70;77.70;;;;;;5052618;28;20923;-49
2022/07/10 09:09:55;;;;;;;10.27;2.73;;;19.80;78.20;;;;;;5052695;28;20423;-49
2022/07/10 09:12:23;;;;;;;4.97;2.23;;;19.80;78.10;;;;;;5053157;28;20461;-49
2022/07/10 09:14:50;;;;;;;8.13;2.10;;;19.80;78.30;;;;;;5053084;28;20518;-49
2022/07/10 09:17:18;;;;;;;5.53;1.63;;;19.90;77.70;;;;;;5035237;28;20451;-49
2022/07/10 09:19:45;;;;;;;9.03;1.97;;;19.80;76.90;;;;;;5052577;28;20904;-49
2022/07/10 09:22:12;;;;;;;8.00;2.20;;;19.80;76.90;;;;;;5052928;28;20486;-49
2022/07/10 09:24:40;;;;;;;5.83;1.50;;;20.10;76.40;;;;;;5052935;28;20465;-50
2022/07/10 09:27:08;;;;;;;6.87;1.63;;;20.10;75.20;;;;;;5053192;28;20430;-49
2022/07/10 09:29:47;;;;;;;4.90;1.87;;;19.80;74.10;;;;;;5052667;28;21012;-50
2022/07/10 09:32:15;;;;;;;7.07;1.73;;;20.10;73.00;;;;;;5052940;28;20469;-49
2022/07/10 09:34:44;;;;;;;6.43;1.67;;;20.00;73.60;;;;;;5052521;28;20532;-51
2022/07/10 09:37:22;;;;;;;5.93;1.70;;;19.90;73.00;;;;;;5052357;28;20431;-51
2022/07/10 09:39:53;;;;;;;3.73;1.40;;;20.00;72.80;;;;;;5052571;28;20431;-50
2022/07/10 09:42:27;;;;;;;4.70;1.30;;;20.10;73.20;;;;;;5052313;28;20581;-50
2022/07/10 09:45:13;;;;;;;5.10;1.40;;;20.30;72.90;;;;;;5052375;28;20440;-51
2022/07/10 09:47:40;;;;;;;7.90;1.70;;;20.30;72.60;;;;;;5034512;28;20578;-51
2022/07/10 09:50:22;;;;;;;5.93;1.73;;;20.30;72.10;;;;;;5052288;28;20880;-49
2022/07/10 09:52:50;;;;;;;5.63;1.50;;;20.30;71.80;;;;;;5052413;28;20473;-49
2022/07/10 09:55:20;;;;;;;9.63;2.20;;;20.20;72.90;;;;;;5052361;28;20446;-49
2022/07/10 09:57:53;;;;;;;5.43;1.53;;;20.40;72.20;;;;;;5051983;28;20509;-51
2022/07/10 10:00:20;;;;;;;7.00;1.57;;;20.50;72.30;;;;;;5051913;28;20430;-50
2022/07/10 10:02:47;;;;;;;3.93;1.77;;;20.70;71.70;;;;;;5052229;28;20839;-50
2022/07/10 10:05:16;;;;;;;5.37;1.93;;;20.80;71.10;;;;;;5052213;28;20880;-49
2022/07/10 10:07:44;;;;;;;5.17;2.40;;;20.60;69.70;;;;;;5051920;28;20449;-50
2022/07/10 10:10:12;;;;;;;5.50;1.57;;;20.40;70.10;;;;;;5051601;28;20439;-50
2022/07/10 10:12:45;;;;;;;7.60;2.63;;;20.40;70.90;;;;;;5052363;28;20943;-49
2022/07/10 10:15:12;;;;;;;4.70;1.73;;;20.40;71.30;;;;;;5051982;28;20561;-50
2022/07/10 10:17:41;;;;;;;7.70;2.00;;;20.40;71.60;;;;;;5051890;28;20462;-49
2022/07/10 10:22:56;;;;;;;5.17;1.87;;;20.50;69.40;;;;;;5051978;28;20445;-50
2022/07/10 10:25:25;;;;;;;6.50;2.63;;;20.40;70.20;;;;;;5051729;28;20945;-50
2022/07/10 10:27:52;;;;;;;6.83;1.83;;;20.50;70.50;;;;;;5051704;28;20432;-49
2022/07/10 10:30:19;;;;;;;7.57;2.40;;;20.40;71.50;;;;;;5051548;28;20428;-50
2022/07/10 10:32:45;;;;;;;5.47;1.33;;;20.50;70.60;;;;;;5033871;28;20959;-49
2022/07/10 10:35:32;;;;;;;7.03;1.60;;;20.50;70.10;;;;;;5051182;28;20491;-51
2022/07/10 10:38:00;;;;;;;12.13;1.70;;;20.10;69.80;;;;;;5033218;28;20475;-49
2022/07/10 10:40:34;;;;;;;4.87;1.77;;;20.20;69.40;;;;;;5050910;28;20518;-49
2022/07/10 10:43:17;;;;;;;3.40;1.10;;;19.90;69.10;;;;;;5051032;28;20496;-50
2022/07/10 10:45:43;;;;;;;9.53;2.33;;;20.30;69.40;;;;;;5051184;28;20463;-50
2022/07/10 10:48:12;;;;;;;5.90;1.97;;;20.40;69.50;;;;;;5033020;28;20548;-50
2022/07/10 10:50:40;;;;;;;4.83;1.77;;;20.40;69.00;;;;;;5050847;28;20968;-50
2022/07/10 10:53:15;;;;;;;5.67;1.93;;;20.40;68.60;;;;;;5032639;28;20824;-50
2022/07/10 10:55:57;;;;;;;8.33;1.90;;;20.50;68.10;;;;;;5050637;28;20963;-51
2022/07/10 10:58:25;;;;;;;8.63;2.13;;;20.70;67.70;;;;;;5050832;28;20428;-49
2022/07/10 11:00:52;;;;;;;4.80;1.40;;;20.60;67.80;;;;;;5050985;28;20810;-49
2022/07/10 11:03:22;;;;;;;6.77;2.13;;;20.80;67.80;;;;;;5050912;28;20451;-50
2022/07/10 11:05:50;;;;;;;4.07;1.60;;;20.90;67.60;;;;;;5050561;28;21007;-50
2022/07/10 11:08:40;;;;;;;4.73;1.40;;;21.00;67.40;;;;;;5033079;28;20454;-50
2022/07/10 11:11:39;;;;;;;5.50;2.07;;;21.10;67.00;;;;;;5050899;28;20452;-50
2022/07/10 11:14:07;;;;;;;9.53;1.80;;;21.30;66.70;;;;;;5050532;28;20477;-49
2022/07/10 11:16:34;;;;;;;7.73;2.23;;;21.10;66.10;;;;;;5050610;28;20439;-49
2022/07/10 11:19:02;;;;;;;10.13;1.77;;;21.10;66.50;;;;;;5049709;28;20440;-49
2022/07/10 11:21:33;;;;;;;4.57;1.70;;;21.00;66.30;;;;;;5051044;28;20470;-49
2022/07/10 11:24:10;;;;;;;7.13;1.77;;;20.70;66.60;;;;;;5050684;28;20427;-50
2022/07/10 11:26:41;;;;;;;4.87;2.03;;;20.80;66.50;;;;;;5050770;28;20479;-50
2022/07/10 11:29:08;;;;;;;4.07;1.53;;;20.90;66.60;;;;;;5050094;28;20447;-50
2022/07/10 11:31:39;;;;;;;7.80;1.90;;;20.80;67.40;;;;;;5050639;28;21107;-49
2022/07/10 11:34:05;;;;;;;6.30;1.77;;;20.80;67.20;;;;;;5050379;28;20485;-49
2022/07/10 11:36:32;;;;;;;6.97;1.50;;;20.60;67.20;;;;;;5050575;28;20854;-49
2022/07/10 11:39:00;;;;;;;6.87;2.30;;;20.60;67.60;;;;;;5050095;28;20433;-50
2022/07/10 11:41:29;;;;;;;9.07;2.03;;;20.70;68.40;;;;;;5049999;28;20470;-49
2022/07/10 11:43:57;;;;;;;6.27;1.80;;;21.00;68.80;;;;;;5050004;28;20429;-50
2022/07/10 11:46:25;;;;;;;9.20;2.50;;;20.90;69.50;;;;;;5050481;28;20437;-49
2022/07/10 11:48:54;;;;;;;5.63;2.00;;;20.70;68.00;;;;;;5050147;28;20811;-49
2022/07/10 11:51:25;;;;;;;4.50;1.97;;;20.80;67.60;;;;;;5050392;28;20460;-50
2022/07/10 11:54:03;;;;;;;4.20;1.83;;;21.00;67.70;;;;;;5050145;28;20472;-50
2022/07/10 11:56:51;;;;;;;7.83;1.50;;;21.10;67.40;;;;;;5050211;28;20436;-49
2022/07/10 11:59:20;;;;;;;4.33;1.53;;;21.20;66.20;;;;;;5049540;28;20454;-50
2022/07/10 12:01:48;;;;;;;4.27;1.73;;;21.40;67.10;;;;;;5032145;28;20469;-52
2022/07/10 12:04:16;;;;;;;6.27;1.63;;;21.00;67.70;;;;;;5049730;28;20435;-50
2022/07/10 12:06:44;;;;;;;5.23;1.40;;;20.80;66.60;;;;;;5049839;28;20436;-50
2022/07/10 12:09:13;;;;;;;5.13;1.30;;;20.70;67.20;;;;;;5049808;28;20431;-50
2022/07/10 12:11:41;;;;;;;6.50;1.60;;;20.60;67.20;;;;;;5032120;28;20657;-49
2022/07/10 12:14:16;;;;;;;4.70;1.90;;;20.50;67.60;;;;;;5050190;28;21047;-49
2022/07/10 12:16:44;;;;;;;7.37;2.10;;;20.70;67.70;;;;;;5050256;28;20512;-50
2022/07/10 12:19:14;;;;;;;3.00;1.30;;;20.50;67.60;;;;;;5049201;28;20830;-49
2022/07/10 12:21:42;;;;;;;3.40;1.53;;;20.50;67.20;;;;;;5049898;28;20460;-50
2022/07/10 12:24:09;;;;;;;7.07;1.60;;;20.80;66.40;;;;;;5032029;28;20447;-49
2022/07/10 12:26:37;;;;;;;5.53;1.63;;;20.70;65.50;;;;;;5050011;28;20869;-50
2022/07/10 12:29:05;;;;;;;5.47;2.17;;;20.80;65.30;;;;;;5049911;28;20749;-51
2022/07/10 12:31:34;;;;;;;6.43;1.90;;;20.90;66.00;;;;;;5050858;28;20452;-51
2022/07/10 12:34:02;;;;;;;12.80;2.33;;;20.90;65.60;;;;;;5053386;28;20481;-50
2022/07/10 12:36:43;;;;;;;7.07;2.60;;;20.80;66.00;;;;;;5053675;28;20490;-50
2022/07/10 12:39:10;;;;;;;4.27;1.50;;;20.80;67.00;;;;;;5053303;28;20444;-50
2022/07/10 12:41:59;;;;;;;5.57;1.60;;;20.90;66.50;;;;;;5053692;28;20468;-50
2022/07/10 12:44:36;;;;;;;9.07;1.67;;;21.00;66.30;;;;;;5053865;28;20460;-49
2022/07/10 12:47:08;;;;;;;5.50;1.50;;;21.10;66.60;;;;;;5053695;28;20536;-49
2022/07/10 12:49:49;;;;;;;4.03;1.60;;;21.10;66.20;;;;;;5052730;28;20436;-50
2022/07/10 12:52:24;;;;;;;7.53;1.60;;;21.00;66.10;;;;;;5052608;28;20464;-51
2022/07/10 12:55:06;;;;;;;3.83;1.37;;;21.00;66.00;;;;;;5052821;28;20467;-50
2022/07/10 12:57:33;;;;;;;5.00;1.50;;;21.10;66.30;;;;;;5053018;28;20433;-49
2022/07/10 13:00:04;;;;;;;5.20;1.63;;;20.90;66.40;;;;;;5052962;28;20932;-49
2022/07/10 13:02:32;;;;;;;7.57;1.60;;;20.80;66.10;;;;;;5052981;28;20443;-49